createdAt,value
2023-12-18T00:00:27.385Z,-0.60
2023-12-18T00:02:54.159Z,-0.70
2023-12-18T00:05:21.086Z,-0.80
2023-12-18T00:07:48.105Z,-0.80
2023-12-18T00:10:15.057Z,-0.80
2023-12-18T00:12:41.957Z,-0.80
2023-12-18T00:15:09.430Z,-0.80
2023-12-18T00:17:36.414Z,-0.80
2023-12-18T00:20:05.159Z,-0.90
2023-12-18T00:22:32.504Z,-0.80
2023-12-18T00:24:59.421Z,-0.90
2023-12-18T00:27:27.492Z,-0.90
2023-12-18T00:29:54.553Z,-0.90
2023-12-18T00:32:21.477Z,-1.00
2023-12-18T00:34:48.472Z,-0.90
2023-12-18T00:37:15.777Z,-0.90
2023-12-18T00:39:42.735Z,-0.90
2023-12-18T00:42:09.713Z,-0.80
2023-12-18T00:44:36.541Z,-0.90
2023-12-18T00:47:04.232Z,-1.00
2023-12-18T00:49:33.785Z,-1.00
2023-12-18T00:52:01.193Z,-1.00
2023-12-18T00:54:28.291Z,-1.00
2023-12-18T00:56:55.459Z,-1.10
2023-12-18T00:59:22.365Z,-1.10
2023-12-18T01:01:49.197Z,-1.10
2023-12-18T01:04:16.175Z,-1.10
2023-12-18T01:06:43.255Z,-1.10
2023-12-18T01:09:10.246Z,-1.10
2023-12-18T01:11:37.303Z,-1.20
2023-12-18T01:14:04.307Z,-1.20
2023-12-18T01:16:31.755Z,-1.30
2023-12-18T01:18:58.825Z,-1.20
2023-12-18T01:21:25.914Z,-1.10
2023-12-18T01:23:52.695Z,-1.10
2023-12-18T01:26:19.698Z,-1.20
2023-12-18T01:28:46.506Z,-1.10
2023-12-18T01:31:24.070Z,-1.10
2023-12-18T01:33:54.475Z,-1.10
2023-12-18T01:36:23.125Z,-1.10
2023-12-18T01:38:50.254Z,-1.10
2023-12-18T01:41:17.975Z,-1.20
2023-12-18T01:43:44.861Z,-1.20
2023-12-18T01:46:18.799Z,-1.20
2023-12-18T01:48:46.875Z,-1.20
2023-12-18T01:51:14.825Z,-1.20
2023-12-18T01:53:45.535Z,-1.20
2023-12-18T01:56:16.914Z,-1.30
2023-12-18T01:58:46.092Z,-1.30
2023-12-18T02:01:14.044Z,-1.30
2023-12-18T02:03:41.990Z,-1.30
2023-12-18T02:06:09.192Z,-1.30
2023-12-18T02:08:36.714Z,-1.30
2023-12-18T02:11:04.480Z,-1.30
2023-12-18T02:13:31.431Z,-1.30
2023-12-18T02:15:59.026Z,-1.30
2023-12-18T02:18:25.980Z,-1.30
2023-12-18T02:20:52.913Z,-1.40
2023-12-18T02:23:19.727Z,-1.30
2023-12-18T02:25:46.712Z,-1.40
2023-12-18T02:28:14.725Z,-1.40
2023-12-18T02:30:41.634Z,-1.40
2023-12-18T02:33:08.981Z,-1.40
2023-12-18T02:35:36.297Z,-1.40
2023-12-18T02:38:03.142Z,-1.40
2023-12-18T02:40:30.005Z,-1.50
2023-12-18T02:42:56.988Z,-1.50
2023-12-18T02:45:23.913Z,-1.50
2023-12-18T02:47:51.222Z,-1.50
2023-12-18T02:50:18.268Z,-1.60
2023-12-18T02:52:45.356Z,-1.60
2023-12-18T02:55:13.349Z,-1.50
2023-12-18T02:57:41.253Z,-1.50
2023-12-18T03:00:09.787Z,-1.60
2023-12-18T03:02:38.452Z,-1.60
2023-12-18T03:05:05.790Z,-1.70
2023-12-18T03:07:32.796Z,-1.60
2023-12-18T03:09:59.566Z,-1.60
2023-12-18T03:12:26.535Z,-1.60
2023-12-18T03:14:53.494Z,-1.60
2023-12-18T03:17:20.448Z,-1.60
2023-12-18T03:19:47.429Z,-1.60
2023-12-18T03:22:14.800Z,-1.60
2023-12-18T03:24:43.712Z,-1.60
2023-12-18T03:27:11.314Z,-1.60
2023-12-18T03:29:38.578Z,-1.70
2023-12-18T03:32:05.670Z,-1.70
2023-12-18T03:34:32.907Z,-1.60
2023-12-18T03:37:00.747Z,-1.70
2023-12-18T03:39:27.670Z,-1.70
2023-12-18T03:41:54.623Z,-1.70
2023-12-18T03:44:22.053Z,-1.70
2023-12-18T03:46:49.002Z,-1.70
2023-12-18T03:49:16.106Z,-1.80
2023-12-18T03:51:43.079Z,-1.80
2023-12-18T03:54:10.275Z,-1.70
2023-12-18T03:56:37.212Z,-1.70
2023-12-18T03:59:04.172Z,-1.70
2023-12-18T04:01:34.959Z,-1.70
2023-12-18T04:04:01.970Z,-1.70
2023-12-18T04:06:28.961Z,-1.70
2023-12-18T04:08:56.197Z,-1.80
2023-12-18T04:11:23.184Z,-1.80
2023-12-18T04:13:51.865Z,-1.80
2023-12-18T04:16:18.698Z,-1.80
2023-12-18T04:18:45.749Z,-1.80
2023-12-18T04:21:12.769Z,-1.80
2023-12-18T04:23:39.602Z,-1.80
2023-12-18T04:26:06.523Z,-1.90
2023-12-18T04:28:33.358Z,-1.90
2023-12-18T04:31:00.261Z,-1.90
2023-12-18T04:33:27.478Z,-1.90
2023-12-18T04:35:54.520Z,-1.90
2023-12-18T04:38:21.413Z,-1.90
2023-12-18T04:40:48.314Z,-1.80
2023-12-18T04:43:15.260Z,-1.90
2023-12-18T04:45:42.259Z,-1.80
2023-12-18T04:48:09.570Z,-1.80
2023-12-18T04:50:36.522Z,-1.90
2023-12-18T04:53:03.374Z,-1.90
2023-12-18T04:55:30.325Z,-1.90
2023-12-18T04:57:57.689Z,-1.90
2023-12-18T05:00:24.475Z,-1.90
2023-12-18T05:02:51.575Z,-1.90
2023-12-18T05:05:19.008Z,-2.00
2023-12-18T05:07:45.945Z,-1.90
2023-12-18T05:10:12.912Z,-2.00
2023-12-18T05:12:39.952Z,-2.00
2023-12-18T05:15:10.691Z,-2.00
2023-12-18T05:17:39.241Z,-2.00
2023-12-18T05:20:07.544Z,-2.00
2023-12-18T05:22:35.304Z,-2.00
2023-12-18T05:25:02.387Z,-2.00
2023-12-18T05:27:29.208Z,-2.10
2023-12-18T05:29:56.193Z,-2.10
2023-12-18T05:32:22.996Z,-2.10
2023-12-18T05:34:50.595Z,-2.10
2023-12-18T05:37:17.582Z,-2.10
2023-12-18T05:39:44.613Z,-2.10
2023-12-18T05:42:12.231Z,-2.00
2023-12-18T05:44:39.139Z,-2.00
2023-12-18T05:47:06.090Z,-2.10
2023-12-18T05:49:33.352Z,-2.10
2023-12-18T05:52:00.239Z,-2.10
2023-12-18T05:54:27.253Z,-2.10
2023-12-18T05:56:54.060Z,-2.20
2023-12-18T05:59:21.108Z,-2.20
2023-12-18T06:01:48.148Z,-2.10
2023-12-18T06:04:15.093Z,-2.10
2023-12-18T06:06:42.095Z,-2.10
2023-12-18T06:09:09.049Z,-2.10
2023-12-18T06:11:36.047Z,-2.10
2023-12-18T06:14:03.130Z,-2.10
2023-12-18T06:16:30.369Z,-2.10
2023-12-18T06:18:58.462Z,-2.10
2023-12-18T06:21:25.454Z,-2.00
2023-12-18T06:23:52.251Z,-2.10
2023-12-18T06:26:19.015Z,-2.10
2023-12-18T06:28:45.847Z,-2.10
2023-12-18T06:31:13.017Z,-2.20
2023-12-18T06:33:40.139Z,-2.20
2023-12-18T06:36:07.369Z,-2.20
2023-12-18T06:38:34.373Z,-2.20
2023-12-18T06:41:01.278Z,-2.20
2023-12-18T06:43:28.113Z,-2.20
2023-12-18T06:45:55.362Z,-2.20
2023-12-18T06:48:22.308Z,-2.20
2023-12-18T06:50:49.443Z,-2.30
2023-12-18T06:53:16.331Z,-2.30
2023-12-18T06:55:43.307Z,-2.20
2023-12-18T06:58:10.134Z,-2.30
2023-12-18T07:00:41.095Z,-2.30
2023-12-18T07:03:08.984Z,-2.30
2023-12-18T07:05:36.404Z,-2.30
2023-12-18T07:08:03.697Z,-2.30
2023-12-18T07:10:30.532Z,-2.40
2023-12-18T07:12:57.351Z,-2.40
2023-12-18T07:15:26.054Z,-2.40
2023-12-18T07:17:54.092Z,-2.30
2023-12-18T07:20:21.312Z,-2.30
2023-12-18T07:22:48.113Z,-2.40
2023-12-18T07:25:15.105Z,-2.40
2023-12-18T07:27:42.245Z,-2.40
2023-12-18T07:30:09.863Z,-2.30
2023-12-18T07:32:36.885Z,-2.30
2023-12-18T07:35:04.862Z,-2.30
2023-12-18T07:37:32.864Z,-2.30
2023-12-18T07:40:01.294Z,-2.40
2023-12-18T07:42:28.303Z,-2.40
2023-12-18T07:44:55.086Z,-2.30
2023-12-18T07:47:22.572Z,-2.30
2023-12-18T07:49:50.853Z,-2.30
2023-12-18T07:52:18.415Z,-2.30
2023-12-18T07:54:45.867Z,-2.40
2023-12-18T07:57:12.976Z,-2.40
2023-12-18T07:59:41.539Z,-2.30
2023-12-18T08:02:08.972Z,-2.30
2023-12-18T08:04:39.583Z,-2.30
2023-12-18T08:07:06.718Z,-2.30
2023-12-18T08:09:34.057Z,-2.30
2023-12-18T08:12:01.476Z,-2.20
2023-12-18T08:14:28.396Z,-2.20
2023-12-18T08:16:55.608Z,-2.20
2023-12-18T08:19:22.584Z,-2.20
2023-12-18T08:21:49.911Z,-2.10
2023-12-18T08:24:16.759Z,-2.10
2023-12-18T08:26:48.343Z,-2.10
2023-12-18T08:29:15.109Z,-2.10
2023-12-18T08:31:43.721Z,-2.00
2023-12-18T08:34:10.958Z,-1.90
2023-12-18T08:39:09.831Z,-1.90
2023-12-18T08:41:38.413Z,-1.90
2023-12-18T08:44:06.344Z,-1.80
2023-12-18T08:46:33.677Z,-1.70
2023-12-18T08:49:00.604Z,-1.50
2023-12-18T08:51:27.506Z,-1.40
2023-12-18T08:53:56.145Z,-1.20
2023-12-18T08:56:23.380Z,-1.00
2023-12-18T08:58:53.985Z,-0.80
2023-12-18T09:01:21.087Z,-0.60
2023-12-18T09:03:48.018Z,-0.50
2023-12-18T09:06:14.902Z,-0.40
2023-12-18T09:08:42.123Z,-0.20
2023-12-18T09:11:09.672Z,0.00
2023-12-18T09:13:37.967Z,0.10
2023-12-18T09:16:06.819Z,0.20
2023-12-18T09:18:34.774Z,0.40
2023-12-18T09:21:02.063Z,0.50
2023-12-18T09:23:29.000Z,0.60
2023-12-18T09:25:56.431Z,0.70
2023-12-18T09:28:23.179Z,0.80
2023-12-18T09:30:50.152Z,1.10
2023-12-18T09:33:17.390Z,1.40
2023-12-18T09:35:44.424Z,1.70
2023-12-18T09:38:11.309Z,1.80
2023-12-18T09:40:38.089Z,1.90
2023-12-18T09:43:05.657Z,2.20
2023-12-18T09:45:32.898Z,2.40
2023-12-18T09:48:00.721Z,2.60
2023-12-18T09:50:28.265Z,2.70
2023-12-18T09:53:11.648Z,2.80
2023-12-18T09:55:38.353Z,2.90
2023-12-18T09:58:06.739Z,3.10
2023-12-18T10:00:34.384Z,3.40
2023-12-18T10:03:01.555Z,3.50
2023-12-18T10:05:28.474Z,3.70
2023-12-18T10:07:59.919Z,3.80
2023-12-18T10:10:26.788Z,4.10
2023-12-18T10:12:54.365Z,4.30
2023-12-18T10:15:23.778Z,4.50
2023-12-18T10:17:50.686Z,4.60
2023-12-18T10:20:19.150Z,4.60
2023-12-18T10:22:45.997Z,4.70
2023-12-18T10:25:13.474Z,4.80
2023-12-18T10:27:40.560Z,4.90
2023-12-18T10:30:08.837Z,5.00
2023-12-18T10:32:41.155Z,5.30
2023-12-18T10:35:09.289Z,5.50
2023-12-18T10:37:38.229Z,5.70
2023-12-18T10:40:10.211Z,5.90
2023-12-18T10:42:38.088Z,6.10
2023-12-18T10:45:08.832Z,6.20
2023-12-18T10:47:36.634Z,6.40
2023-12-18T10:50:05.639Z,6.50
2023-12-18T10:52:33.983Z,6.50
2023-12-18T10:55:03.361Z,6.70
2023-12-18T10:57:31.871Z,6.90
2023-12-18T11:00:00.923Z,7.00
2023-12-18T11:02:30.813Z,7.10
2023-12-18T11:05:00.973Z,7.00
2023-12-18T11:07:29.018Z,7.10
2023-12-18T11:09:56.272Z,7.20
2023-12-18T11:12:25.851Z,7.20
2023-12-18T11:15:17.242Z,7.10
2023-12-18T11:18:21.466Z,7.40
2023-12-18T11:20:49.605Z,7.50
2023-12-18T11:23:17.705Z,7.70
2023-12-18T11:26:14.920Z,7.70
2023-12-18T11:28:42.829Z,7.70
2023-12-18T11:31:13.089Z,7.70
2023-12-18T11:34:03.437Z,7.70
2023-12-18T11:36:30.836Z,7.80
2023-12-18T11:39:00.678Z,7.90
2023-12-18T11:41:45.421Z,7.90
2023-12-18T11:44:13.130Z,8.00
2023-12-18T11:46:40.827Z,7.90
2023-12-18T11:49:08.604Z,7.90
2023-12-18T11:51:36.422Z,7.80
2023-12-18T11:54:03.548Z,7.70
2023-12-18T11:56:42.213Z,7.60
2023-12-18T11:59:09.798Z,7.50
2023-12-18T12:01:40.099Z,7.40
2023-12-18T12:04:07.752Z,7.30
2023-12-18T12:06:35.204Z,7.20
2023-12-18T12:09:02.099Z,7.20
2023-12-18T12:11:28.919Z,7.20
2023-12-18T12:13:55.845Z,7.10
2023-12-18T12:16:23.080Z,7.00
2023-12-18T12:18:56.270Z,7.00
2023-12-18T12:21:32.356Z,7.00
2023-12-18T12:24:05.777Z,6.90
2023-12-18T12:26:32.647Z,6.90
2023-12-18T12:29:00.181Z,6.90
2023-12-18T12:31:27.337Z,6.90
2023-12-18T12:33:54.488Z,6.90
2023-12-18T12:36:25.351Z,6.90
2023-12-18T12:38:54.578Z,7.00
2023-12-18T12:41:21.537Z,7.00
2023-12-18T12:43:48.793Z,7.00
2023-12-18T12:46:20.361Z,7.00
2023-12-18T12:48:50.520Z,7.10
2023-12-18T12:51:18.049Z,7.10
2023-12-18T12:53:45.036Z,7.20
2023-12-18T12:56:12.292Z,7.30
2023-12-18T12:58:39.169Z,7.30
2023-12-18T13:01:08.369Z,7.20
2023-12-18T13:03:36.074Z,7.30
2023-12-18T13:06:03.041Z,7.30
2023-12-18T13:08:29.798Z,7.30
2023-12-18T13:10:58.230Z,7.40
2023-12-18T13:13:25.818Z,7.40
2023-12-18T13:15:53.572Z,7.40
2023-12-18T13:18:20.766Z,7.40
2023-12-18T13:20:47.609Z,7.40
2023-12-18T13:23:15.547Z,7.40
2023-12-18T13:25:43.059Z,7.40
2023-12-18T13:28:10.088Z,7.40
2023-12-18T13:30:37.265Z,7.50
2023-12-18T13:33:04.473Z,7.50
2023-12-18T13:35:31.297Z,7.50
2023-12-18T13:37:58.241Z,7.50
2023-12-18T13:40:25.041Z,7.40
2023-12-18T13:42:51.968Z,7.40
2023-12-18T13:45:21.227Z,7.40
2023-12-18T13:47:48.467Z,7.60
2023-12-18T13:50:15.435Z,7.50
2023-12-18T13:52:43.142Z,7.40
2023-12-18T13:55:09.956Z,7.40
2023-12-18T13:57:43.518Z,7.40
2023-12-18T14:00:15.626Z,7.40
2023-12-18T14:02:42.419Z,7.40
2023-12-18T14:05:10.518Z,7.40
2023-12-18T14:07:37.875Z,7.40
2023-12-18T14:10:08.770Z,7.30
2023-12-18T14:12:36.540Z,7.30
2023-12-18T14:15:04.358Z,7.20
2023-12-18T14:17:31.221Z,7.20
2023-12-18T14:20:05.057Z,7.10
2023-12-18T14:22:32.449Z,7.10
2023-12-18T14:24:59.472Z,7.00
2023-12-18T14:27:26.388Z,7.00
2023-12-18T14:29:53.333Z,7.00
2023-12-18T14:32:20.675Z,6.90
2023-12-18T14:34:47.489Z,6.80
2023-12-18T14:37:14.379Z,6.80
2023-12-18T14:39:41.246Z,6.70
2023-12-18T14:42:09.363Z,6.70
2023-12-18T14:44:36.085Z,6.60
2023-12-18T14:47:02.801Z,6.60
2023-12-18T14:49:30.133Z,6.50
2023-12-18T14:52:00.062Z,6.40
2023-12-18T14:54:27.214Z,6.40
2023-12-18T14:56:54.148Z,6.30
2023-12-18T14:59:21.530Z,6.20
2023-12-18T15:01:48.774Z,6.10
2023-12-18T15:04:19.745Z,6.10
2023-12-18T15:06:53.374Z,6.00
2023-12-18T15:09:20.566Z,5.90
2023-12-18T15:11:48.256Z,5.90
2023-12-18T15:14:15.047Z,5.80
2023-12-18T15:16:42.945Z,5.70
2023-12-18T15:19:10.664Z,5.60
2023-12-18T15:21:39.250Z,5.60
2023-12-18T15:24:09.768Z,5.50
2023-12-18T15:26:38.028Z,5.40
2023-12-18T15:29:04.894Z,5.40
2023-12-18T15:31:32.008Z,5.40
2023-12-18T15:34:02.209Z,5.30
2023-12-18T15:36:30.533Z,5.20
2023-12-18T15:38:57.365Z,5.10
2023-12-18T15:41:24.204Z,5.10
2023-12-18T15:43:50.996Z,5.00
2023-12-18T15:46:17.809Z,5.00
2023-12-18T15:48:44.985Z,5.00
2023-12-18T15:51:11.828Z,4.90
2023-12-18T15:53:40.249Z,4.80
2023-12-18T15:56:07.337Z,4.80
2023-12-18T15:58:34.125Z,4.70
2023-12-18T16:01:01.331Z,4.60
2023-12-18T16:03:28.483Z,4.50
2023-12-18T16:05:56.734Z,4.50
2023-12-18T16:08:25.188Z,4.40
2023-12-18T16:10:52.542Z,4.40
2023-12-18T16:13:19.342Z,4.40
2023-12-18T16:15:46.229Z,4.30
2023-12-18T16:18:13.281Z,4.20
2023-12-18T16:20:40.312Z,4.10
2023-12-18T16:23:07.084Z,4.10
2023-12-18T16:25:33.925Z,4.00
2023-12-18T16:28:00.752Z,3.90
2023-12-18T16:30:32.691Z,3.80
2023-12-18T16:33:05.452Z,3.80
2023-12-18T16:35:32.565Z,3.80
2023-12-18T16:38:01.197Z,3.70
2023-12-18T16:40:28.145Z,3.70
2023-12-18T16:42:55.719Z,3.60
2023-12-18T16:45:22.639Z,3.60
2023-12-18T16:47:49.543Z,3.50
2023-12-18T16:50:16.436Z,3.40
2023-12-18T16:52:44.269Z,3.30
2023-12-18T16:55:13.386Z,3.30
2023-12-18T16:57:40.735Z,3.30
2023-12-18T17:00:12.845Z,3.30
2023-12-18T17:02:42.084Z,3.30
2023-12-18T17:05:09.428Z,3.20
2023-12-18T17:07:36.557Z,3.20
2023-12-18T17:10:04.255Z,3.20
2023-12-18T17:12:31.303Z,3.10
2023-12-18T17:14:58.256Z,3.00
2023-12-18T17:17:27.080Z,3.00
2023-12-18T17:19:54.095Z,3.00
2023-12-18T17:22:21.034Z,3.00
2023-12-18T17:24:48.045Z,2.80
2023-12-18T17:27:15.117Z,2.80
2023-12-18T17:29:42.506Z,2.70
2023-12-18T17:32:09.492Z,2.70
2023-12-18T17:34:54.417Z,2.70
2023-12-18T17:37:21.405Z,2.70
2023-12-18T17:39:49.290Z,2.60
2023-12-18T17:42:16.328Z,2.60
2023-12-18T17:44:43.770Z,2.60
2023-12-18T17:47:10.540Z,2.50
2023-12-18T17:49:41.950Z,2.50
2023-12-18T17:52:08.840Z,2.40
2023-12-18T17:54:35.589Z,2.40
2023-12-18T17:57:04.608Z,2.30
2023-12-18T17:59:31.474Z,2.20
2023-12-18T18:01:58.243Z,2.20
2023-12-18T18:04:25.122Z,2.30
2023-12-18T18:06:52.529Z,2.20
2023-12-18T18:09:19.366Z,2.10
2023-12-18T18:11:46.112Z,2.00
2023-12-18T18:14:12.968Z,2.00
2023-12-18T18:16:39.826Z,1.90
2023-12-18T18:19:08.962Z,2.00
2023-12-18T18:21:36.472Z,1.90
2023-12-18T18:24:03.345Z,1.90
2023-12-18T18:26:30.153Z,1.90
2023-12-18T18:28:56.858Z,1.80
2023-12-18T18:31:23.829Z,1.80
2023-12-18T18:33:50.955Z,1.80
2023-12-18T18:36:18.040Z,1.70
2023-12-18T18:38:45.086Z,1.70
2023-12-18T18:41:11.898Z,1.60
2023-12-18T18:43:38.694Z,1.60
2023-12-18T18:46:06.188Z,1.60
2023-12-18T18:48:33.141Z,1.50
2023-12-18T18:51:00.418Z,1.40
2023-12-18T18:53:27.215Z,1.40
2023-12-18T18:55:56.083Z,1.40
2023-12-18T18:58:23.844Z,1.40
2023-12-18T19:00:51.526Z,1.40
2023-12-18T19:03:20.688Z,1.40
2023-12-18T19:05:47.837Z,1.30
2023-12-18T19:08:14.674Z,1.20
2023-12-18T19:10:41.530Z,1.20
2023-12-18T19:13:08.220Z,1.20
2023-12-18T19:15:35.062Z,1.20
2023-12-18T19:18:01.813Z,1.20
2023-12-18T19:20:29.854Z,1.20
2023-12-18T19:22:56.729Z,1.20
2023-12-18T19:25:23.512Z,1.20
2023-12-18T19:27:50.334Z,1.20
2023-12-18T19:30:17.348Z,1.00
2023-12-18T19:32:44.399Z,1.00
2023-12-18T19:35:12.184Z,0.90
2023-12-18T19:37:41.732Z,1.00
2023-12-18T19:40:09.161Z,1.00
2023-12-18T19:42:36.020Z,1.00
2023-12-18T19:45:03.002Z,0.90
2023-12-18T19:47:29.809Z,0.90
2023-12-18T19:49:56.658Z,0.90
2023-12-18T19:52:23.462Z,0.90
2023-12-18T19:54:50.214Z,0.90
2023-12-18T19:57:17.747Z,0.90
2023-12-18T19:59:44.529Z,0.80
2023-12-18T20:02:11.393Z,0.80
2023-12-18T20:04:38.173Z,0.80
2023-12-18T20:07:05.890Z,0.70
2023-12-18T20:09:33.158Z,0.70
2023-12-18T20:11:59.895Z,0.60
2023-12-18T20:14:26.728Z,0.50
2023-12-18T20:16:53.480Z,0.50
2023-12-18T20:19:20.356Z,0.60
2023-12-18T20:21:47.320Z,0.50
2023-12-18T20:24:14.229Z,0.50
2023-12-18T20:26:43.387Z,0.40
2023-12-18T20:29:13.153Z,0.40
2023-12-18T20:31:40.378Z,0.30
2023-12-18T20:34:07.475Z,0.30
2023-12-18T20:36:34.365Z,0.30
2023-12-18T20:39:01.210Z,0.40
2023-12-18T20:41:28.470Z,0.40
2023-12-18T20:43:55.847Z,0.40
2023-12-18T20:46:22.652Z,0.50
2023-12-18T20:48:50.784Z,0.40
2023-12-18T20:51:17.726Z,0.30
2023-12-18T20:53:44.556Z,0.30
2023-12-18T20:56:14.633Z,0.30
2023-12-18T20:58:41.776Z,0.30
2023-12-18T21:01:09.832Z,0.20
2023-12-18T21:03:36.851Z,0.20
2023-12-18T21:06:03.969Z,0.20
2023-12-18T21:08:30.706Z,0.30
2023-12-18T21:10:57.382Z,0.20
2023-12-18T21:13:25.640Z,0.30
2023-12-18T21:15:52.918Z,0.20
2023-12-18T21:18:19.668Z,0.20
2023-12-18T21:20:46.952Z,0.20
2023-12-18T21:23:13.909Z,0.10
2023-12-18T21:25:40.697Z,0.10
2023-12-18T21:28:07.528Z,0.00
2023-12-18T21:30:34.511Z,0.10
2023-12-18T21:33:03.363Z,0.00
2023-12-18T21:35:30.241Z,0.00
2023-12-18T21:37:57.247Z,0.00
2023-12-18T21:40:24.198Z,-0.10
2023-12-18T21:42:51.620Z,-0.10
2023-12-18T21:45:18.993Z,-0.20
2023-12-18T21:47:45.936Z,-0.10
2023-12-18T21:50:12.873Z,-0.10
2023-12-18T21:52:39.664Z,-0.10
2023-12-18T21:55:06.563Z,-0.20
2023-12-18T21:57:33.338Z,-0.20
2023-12-18T22:00:00.966Z,-0.20
2023-12-18T22:02:27.702Z,-0.20
2023-12-18T22:04:54.473Z,-0.20
2023-12-18T22:07:21.248Z,-0.20
2023-12-18T22:09:48.173Z,-0.30
2023-12-18T22:12:14.922Z,-0.30
2023-12-18T22:14:41.630Z,-0.40
2023-12-18T22:17:08.399Z,-0.50
2023-12-18T22:19:35.182Z,-0.50
2023-12-18T22:22:04.143Z,-0.50
2023-12-18T22:24:31.187Z,-0.50
2023-12-18T22:26:58.644Z,-0.50
2023-12-18T22:29:25.391Z,-0.50
2023-12-18T22:31:52.472Z,-0.50
2023-12-18T22:34:19.477Z,-0.60
2023-12-18T22:36:46.359Z,-0.60
2023-12-18T22:39:13.402Z,-0.60
2023-12-18T22:41:41.672Z,-0.60
2023-12-18T22:44:08.871Z,-0.60
2023-12-18T22:46:38.310Z,-0.60
2023-12-18T22:49:05.219Z,-0.70
2023-12-18T22:51:32.001Z,-0.70
2023-12-18T22:53:58.765Z,-0.70
2023-12-18T22:56:26.202Z,-0.70
2023-12-18T22:58:54.588Z,-0.60
2023-12-18T23:01:23.025Z,-0.60
2023-12-18T23:03:50.376Z,-0.60
2023-12-18T23:06:17.200Z,-0.70
2023-12-18T23:08:45.881Z,-0.80
2023-12-18T23:11:12.701Z,-0.70
2023-12-18T23:13:39.497Z,-0.60
2023-12-18T23:16:06.645Z,-0.60
2023-12-18T23:18:33.473Z,-0.50
2023-12-18T23:21:07.368Z,-0.50
2023-12-18T23:23:34.341Z,-0.40
2023-12-18T23:26:01.419Z,-0.40
2023-12-18T23:28:29.627Z,-0.50
2023-12-18T23:30:56.758Z,-0.50
2023-12-18T23:33:28.374Z,-0.50
2023-12-18T23:35:58.977Z,-0.60
2023-12-18T23:38:25.803Z,-0.60
2023-12-18T23:40:52.505Z,-0.70
2023-12-18T23:43:19.325Z,-0.70
2023-12-18T23:45:46.196Z,-0.70
2023-12-18T23:48:13.030Z,-0.80
2023-12-18T23:50:39.855Z,-0.70
2023-12-18T23:53:07.893Z,-0.80
2023-12-18T23:55:34.647Z,-0.90
2023-12-18T23:58:01.608Z,-0.90
